createdAt,value
2022-11-28T00:01:27.134Z,4.90
2022-11-28T00:03:54.361Z,4.90
2022-11-28T00:06:22.789Z,4.90
2022-11-28T00:08:49.935Z,5.00
2022-11-28T00:11:18.336Z,5.00
2022-11-28T00:13:46.388Z,5.00
2022-11-28T00:16:21.833Z,5.00
2022-11-28T00:18:54.249Z,5.00
2022-11-28T00:21:22.256Z,5.00
2022-11-28T00:23:50.058Z,5.00
2022-11-28T00:26:22.736Z,5.00
2022-11-28T00:28:50.521Z,5.00
2022-11-28T00:31:21.330Z,5.10
2022-11-28T00:33:48.794Z,5.10
2022-11-28T00:36:16.345Z,5.10
2022-11-28T00:38:43.517Z,5.00
2022-11-28T00:41:14.359Z,5.10
2022-11-28T00:43:43.031Z,5.10
2022-11-28T00:46:11.457Z,5.10
2022-11-28T00:48:38.736Z,5.10
2022-11-28T00:51:14.344Z,5.10
2022-11-28T00:53:42.970Z,5.10
2022-11-28T00:56:12.573Z,5.10
2022-11-28T00:58:40.618Z,5.10
2022-11-28T01:01:17.756Z,5.10
2022-11-28T01:03:45.310Z,5.20
2022-11-28T01:06:13.243Z,5.10
2022-11-28T01:08:40.216Z,5.20
2022-11-28T01:11:13.254Z,5.20
2022-11-28T01:13:41.119Z,5.20
2022-11-28T01:16:09.037Z,5.20
2022-11-28T01:18:36.924Z,5.10
2022-11-28T01:21:04.976Z,5.10
2022-11-28T01:23:32.032Z,5.10
2022-11-28T01:25:59.274Z,5.00
2022-11-28T01:28:26.271Z,5.00
2022-11-28T01:30:53.184Z,4.90
2022-11-28T01:33:20.182Z,5.00
2022-11-28T01:35:58.112Z,5.00
2022-11-28T01:38:25.954Z,5.00
2022-11-28T01:40:53.192Z,4.90
2022-11-28T01:43:20.967Z,4.90
2022-11-28T01:45:48.056Z,4.80
2022-11-28T01:48:27.863Z,4.80
2022-11-28T01:50:59.205Z,4.80
2022-11-28T01:53:30.696Z,4.80
2022-11-28T01:56:07.917Z,4.80
2022-11-28T01:58:39.658Z,4.80
2022-11-28T02:01:07.887Z,4.80
2022-11-28T02:03:43.371Z,4.90
2022-11-28T02:06:11.568Z,4.80
2022-11-28T02:08:38.610Z,4.80
2022-11-28T02:11:32.057Z,4.80
2022-11-28T02:14:20.802Z,4.80
2022-11-28T02:16:59.455Z,4.80
2022-11-28T02:19:48.619Z,4.70
2022-11-28T02:22:45.101Z,4.70
2022-11-28T02:25:36.519Z,4.70
2022-11-28T02:28:29.901Z,4.70
2022-11-28T02:31:16.468Z,4.70
2022-11-28T02:33:53.917Z,4.70
2022-11-28T02:36:40.632Z,4.70
2022-11-28T02:39:36.747Z,4.70
2022-11-28T02:42:22.790Z,4.70
2022-11-28T02:45:03.855Z,4.70
2022-11-28T02:47:34.103Z,4.70
2022-11-28T02:50:12.482Z,4.70
2022-11-28T02:52:50.965Z,4.70
2022-11-28T02:55:18.746Z,4.70
2022-11-28T02:57:51.418Z,4.60
2022-11-28T03:00:39.852Z,4.70
2022-11-28T03:03:09.595Z,4.60
2022-11-28T03:05:42.703Z,4.60
2022-11-28T03:08:15.211Z,4.60
2022-11-28T03:11:02.534Z,4.60
2022-11-28T03:13:49.622Z,4.60
2022-11-28T03:16:36.006Z,4.70
2022-11-28T03:19:29.942Z,4.70
2022-11-28T03:22:15.249Z,4.70
2022-11-28T03:24:58.352Z,4.80
2022-11-28T03:27:42.957Z,4.80
2022-11-28T03:30:19.748Z,4.80
2022-11-28T03:32:50.265Z,4.80
2022-11-28T03:35:20.646Z,4.80
2022-11-28T03:37:55.848Z,4.80
2022-11-28T03:40:27.809Z,4.90
2022-11-28T03:43:00.662Z,4.90
2022-11-28T03:45:35.330Z,4.90
2022-11-28T03:48:08.850Z,4.90
2022-11-28T03:50:47.377Z,5.00
2022-11-28T03:53:20.316Z,5.00
2022-11-28T03:56:00.439Z,5.00
2022-11-28T03:58:34.255Z,5.00
2022-11-28T04:01:22.523Z,5.00
2022-11-28T04:04:16.157Z,5.00
2022-11-28T04:07:24.467Z,5.00
2022-11-28T04:10:00.369Z,5.00
2022-11-28T04:12:40.017Z,5.00
2022-11-28T04:15:14.118Z,5.00
2022-11-28T04:17:58.766Z,5.00
2022-11-28T04:20:59.086Z,5.10
2022-11-28T04:23:27.378Z,5.10
2022-11-28T04:26:12.856Z,5.10
2022-11-28T04:28:41.273Z,5.10
2022-11-28T04:31:10.011Z,5.10
2022-11-28T04:33:43.191Z,5.10
2022-11-28T04:36:12.535Z,5.10
2022-11-28T04:38:42.523Z,5.10
2022-11-28T04:41:18.404Z,5.20
2022-11-28T04:43:57.648Z,5.20
2022-11-28T04:46:34.003Z,5.20
2022-11-28T04:49:01.135Z,5.20
2022-11-28T04:51:31.270Z,5.20
2022-11-28T04:54:17.528Z,5.30
2022-11-28T04:57:09.609Z,5.20
2022-11-28T04:59:36.934Z,5.20
2022-11-28T05:02:05.784Z,5.20
2022-11-28T05:04:38.582Z,5.20
2022-11-28T05:07:08.591Z,5.20
2022-11-28T05:09:36.616Z,5.20
2022-11-28T05:12:04.439Z,5.20
2022-11-28T05:14:31.426Z,5.20
2022-11-28T05:16:58.356Z,5.20
2022-11-28T05:19:25.416Z,5.20
2022-11-28T05:21:53.643Z,5.20
2022-11-28T05:24:22.375Z,5.20
2022-11-28T05:26:49.929Z,5.20
2022-11-28T05:29:17.052Z,5.20
2022-11-28T05:31:44.165Z,5.20
2022-11-28T05:34:11.136Z,5.20
2022-11-28T05:36:38.163Z,5.20
2022-11-28T05:39:05.150Z,5.20
2022-11-28T05:41:33.538Z,5.30
2022-11-28T05:44:01.236Z,5.30
2022-11-28T05:46:29.778Z,5.30
2022-11-28T05:48:57.106Z,5.30
2022-11-28T05:51:24.500Z,5.30
2022-11-28T05:53:51.647Z,5.30
2022-11-28T05:56:20.625Z,5.30
2022-11-28T05:58:47.593Z,5.40
2022-11-28T06:01:18.410Z,5.40
2022-11-28T06:03:45.897Z,5.30
2022-11-28T06:06:22.087Z,5.30
2022-11-28T06:08:51.642Z,5.30
2022-11-28T06:11:20.666Z,5.30
2022-11-28T06:13:49.488Z,5.30
2022-11-28T06:16:20.066Z,5.30
2022-11-28T06:18:47.368Z,5.40
2022-11-28T06:21:16.015Z,5.30
2022-11-28T06:23:43.090Z,5.30
2022-11-28T06:26:13.131Z,5.30
2022-11-28T06:28:41.192Z,5.30
2022-11-28T06:31:25.947Z,5.40
2022-11-28T06:33:52.967Z,5.40
2022-11-28T06:36:21.130Z,5.40
2022-11-28T06:38:48.682Z,5.40
2022-11-28T06:41:18.021Z,5.40
2022-11-28T06:43:45.123Z,5.40
2022-11-28T06:46:17.642Z,5.40
2022-11-28T06:48:45.792Z,5.50
2022-11-28T06:51:14.316Z,5.50
2022-11-28T06:53:41.778Z,5.50
2022-11-28T06:56:11.986Z,5.60
2022-11-28T06:58:38.962Z,5.60
2022-11-28T07:01:12.523Z,5.60
2022-11-28T07:03:40.213Z,5.60
2022-11-28T07:06:08.321Z,5.70
2022-11-28T07:08:36.102Z,5.70
2022-11-28T07:11:16.817Z,5.70
2022-11-28T07:13:47.869Z,5.70
2022-11-28T07:16:26.748Z,5.70
2022-11-28T07:18:54.703Z,5.70
2022-11-28T07:21:21.816Z,5.70
2022-11-28T07:23:49.185Z,5.70
2022-11-28T07:26:19.695Z,5.70
2022-11-28T07:28:47.488Z,5.70
2022-11-28T07:31:17.672Z,5.80
2022-11-28T07:33:46.927Z,5.80
2022-11-28T07:36:19.516Z,5.80
2022-11-28T07:38:48.684Z,5.80
2022-11-28T07:41:15.783Z,5.80
2022-11-28T07:43:44.711Z,5.80
2022-11-28T07:46:15.118Z,5.80
2022-11-28T07:48:42.679Z,5.80
2022-11-28T07:51:12.763Z,5.80
2022-11-28T07:53:40.850Z,5.90
2022-11-28T07:56:13.099Z,5.90
2022-11-28T07:58:40.144Z,6.00
2022-11-28T08:01:15.622Z,6.00
2022-11-28T08:03:45.189Z,6.00
2022-11-28T08:06:14.763Z,6.00
2022-11-28T08:08:41.756Z,6.00
2022-11-28T08:11:10.199Z,6.00
2022-11-28T08:13:38.252Z,6.10
2022-11-28T08:16:10.330Z,6.00
2022-11-28T08:18:37.587Z,6.00
2022-11-28T08:21:14.357Z,6.10
2022-11-28T08:23:42.118Z,6.10
2022-11-28T08:26:10.914Z,6.20
2022-11-28T08:28:38.054Z,6.20
2022-11-28T08:31:13.652Z,6.20
2022-11-28T08:33:41.863Z,6.20
2022-11-28T08:36:11.266Z,6.30
2022-11-28T08:38:39.436Z,6.30
2022-11-28T08:41:10.033Z,6.40
2022-11-28T08:43:38.344Z,6.40
2022-11-28T08:46:07.154Z,6.50
2022-11-28T08:48:35.963Z,6.50
2022-11-28T08:51:03.568Z,6.50
2022-11-28T08:53:31.104Z,6.50
2022-11-28T08:55:58.187Z,6.50
2022-11-28T08:58:25.264Z,6.50
2022-11-28T09:00:52.479Z,6.50
2022-11-28T09:03:20.738Z,6.40
2022-11-28T09:05:48.378Z,6.50
2022-11-28T09:08:16.979Z,6.50
2022-11-28T09:10:45.440Z,6.50
2022-11-28T09:13:15.095Z,6.50
2022-11-28T09:15:43.783Z,6.50
2022-11-28T09:18:13.166Z,6.60
2022-11-28T09:20:40.683Z,6.60
2022-11-28T09:23:08.925Z,6.70
2022-11-28T09:25:36.921Z,6.70
2022-11-28T09:28:07.265Z,6.80
2022-11-28T09:30:34.812Z,6.80
2022-11-28T09:33:01.925Z,6.90
2022-11-28T09:35:29.068Z,7.00
2022-11-28T09:37:57.320Z,7.10
2022-11-28T09:40:39.347Z,7.10
2022-11-28T09:43:38.249Z,7.10
2022-11-28T09:46:12.209Z,7.20
2022-11-28T09:48:46.091Z,7.30
2022-11-28T09:51:27.797Z,7.30
2022-11-28T09:54:08.278Z,7.40
2022-11-28T09:56:36.129Z,7.40
2022-11-28T09:59:04.357Z,7.50
2022-11-28T10:01:52.648Z,7.50
2022-11-28T10:04:42.901Z,7.60
2022-11-28T10:07:35.686Z,7.70
2022-11-28T10:10:30.386Z,7.70
2022-11-28T10:13:15.253Z,7.70
2022-11-28T10:15:46.276Z,7.80
2022-11-28T10:18:22.247Z,7.80
2022-11-28T10:20:55.032Z,7.90
2022-11-28T10:23:37.248Z,7.90
2022-11-28T10:26:13.776Z,7.90
2022-11-28T10:28:44.171Z,8.00
2022-11-28T10:31:32.496Z,8.00
2022-11-28T10:34:03.019Z,8.10
2022-11-28T10:37:06.986Z,8.10
2022-11-28T10:39:37.696Z,8.10
2022-11-28T10:42:18.586Z,8.10
2022-11-28T10:45:06.921Z,8.10
2022-11-28T10:47:52.455Z,8.20
2022-11-28T10:50:32.470Z,8.20
2022-11-28T10:53:20.225Z,8.20
2022-11-28T10:55:59.124Z,8.30
2022-11-28T10:58:56.233Z,8.30
2022-11-28T11:01:23.575Z,8.40
2022-11-28T11:03:50.715Z,8.50
2022-11-28T11:06:17.714Z,8.60
2022-11-28T11:08:47.825Z,8.70
2022-11-28T11:11:28.928Z,8.70
2022-11-28T11:14:05.936Z,8.70
2022-11-28T11:16:54.362Z,8.80
2022-11-28T11:19:36.927Z,8.80
2022-11-28T11:22:12.921Z,8.70
2022-11-28T11:24:39.958Z,8.60
2022-11-28T11:27:22.925Z,8.60
2022-11-28T11:29:52.074Z,8.60
2022-11-28T11:32:27.737Z,8.60
2022-11-28T11:34:56.650Z,8.50
2022-11-28T11:37:33.829Z,8.50
2022-11-28T11:40:02.952Z,8.50
2022-11-28T11:42:31.876Z,8.60
2022-11-28T11:45:32.673Z,8.50
2022-11-28T11:48:00.644Z,8.50
2022-11-28T11:50:32.056Z,8.40
2022-11-28T11:53:11.329Z,8.40
2022-11-28T11:55:53.932Z,8.40
2022-11-28T11:58:25.635Z,8.30
2022-11-28T12:00:56.320Z,8.20
2022-11-28T12:03:30.014Z,8.20
2022-11-28T12:06:13.629Z,8.10
2022-11-28T12:08:51.521Z,8.20
2022-11-28T12:11:24.281Z,8.20
2022-11-28T12:13:52.107Z,8.30
2022-11-28T12:16:47.843Z,8.30
2022-11-28T12:19:58.145Z,8.30
2022-11-28T12:22:39.668Z,8.20
2022-11-28T12:25:21.976Z,8.20
2022-11-28T12:27:57.047Z,8.10
2022-11-28T12:30:54.049Z,8.10
2022-11-28T12:33:49.837Z,8.10
2022-11-28T12:36:26.883Z,8.10
2022-11-28T12:39:11.522Z,8.00
2022-11-28T12:41:53.237Z,7.90
2022-11-28T12:44:43.270Z,7.90
2022-11-28T12:47:35.791Z,7.80
2022-11-28T12:50:20.951Z,7.80
2022-11-28T12:52:53.783Z,7.70
2022-11-28T12:55:59.424Z,7.70
2022-11-28T12:58:50.887Z,7.60
2022-11-28T13:01:55.457Z,7.60
2022-11-28T13:04:40.699Z,7.50
2022-11-28T13:07:31.900Z,7.50
2022-11-28T13:10:26.257Z,7.50
2022-11-28T13:13:06.149Z,7.40
2022-11-28T13:15:36.318Z,7.40
2022-11-28T13:18:24.754Z,7.40
2022-11-28T13:21:17.854Z,7.40
2022-11-28T13:23:53.736Z,7.40
2022-11-28T13:26:40.290Z,7.40
2022-11-28T13:29:31.936Z,7.30
2022-11-28T13:32:13.317Z,7.30
2022-11-28T13:34:40.945Z,7.30
2022-11-28T13:40:21.487Z,7.20
2022-11-28T13:43:14.705Z,7.20
2022-11-28T13:48:57.605Z,7.20
2022-11-28T13:51:31.122Z,7.10
2022-11-28T13:54:17.916Z,7.00
2022-11-28T13:57:05.047Z,7.00
2022-11-28T13:59:33.353Z,6.90
2022-11-28T14:02:03.455Z,6.90
2022-11-28T14:04:32.862Z,6.90
2022-11-28T14:07:04.672Z,6.80
2022-11-28T14:09:44.867Z,6.80
2022-11-28T14:12:38.344Z,6.80
2022-11-28T14:15:06.552Z,6.80
2022-11-28T14:18:39.104Z,6.80
2022-11-28T14:21:03.234Z,6.70
2022-11-28T14:23:48.513Z,6.70
2022-11-28T14:26:25.608Z,6.60
2022-11-28T14:28:52.858Z,6.60
2022-11-28T14:31:35.095Z,6.60
2022-11-28T14:34:04.937Z,6.50
2022-11-28T14:36:34.933Z,6.50
2022-11-28T14:39:17.001Z,6.50
2022-11-28T14:42:08.515Z,6.50
2022-11-28T14:44:56.214Z,6.40
2022-11-28T14:47:35.787Z,6.40
2022-11-28T14:50:05.756Z,6.30
2022-11-28T14:52:41.328Z,6.30
2022-11-28T14:55:11.887Z,6.30
2022-11-28T14:57:55.018Z,6.30
2022-11-28T15:00:30.774Z,6.30
2022-11-28T15:03:00.612Z,6.20
2022-11-28T15:05:38.082Z,6.20
2022-11-28T15:08:35.965Z,6.20
2022-11-28T15:11:36.556Z,6.20
2022-11-28T15:14:19.333Z,6.10
2022-11-28T15:16:50.459Z,6.10
2022-11-28T15:19:20.666Z,6.10
2022-11-28T15:21:50.391Z,6.00
2022-11-28T15:24:25.133Z,6.00
2022-11-28T15:26:57.377Z,6.00
2022-11-28T15:29:27.761Z,6.00
2022-11-28T15:31:57.333Z,6.00
2022-11-28T15:34:28.543Z,6.10
2022-11-28T15:36:58.207Z,6.00
2022-11-28T15:39:35.097Z,6.00
2022-11-28T15:42:04.795Z,6.00
2022-11-28T15:44:32.517Z,5.90
2022-11-28T15:46:59.838Z,5.90
2022-11-28T15:49:33.454Z,5.90
2022-11-28T15:52:03.873Z,5.90
2022-11-28T15:54:42.529Z,5.90
2022-11-28T15:57:21.486Z,5.90
2022-11-28T15:59:48.478Z,5.80
2022-11-28T16:02:34.219Z,5.80
2022-11-28T16:05:09.010Z,5.90
2022-11-28T16:07:41.356Z,5.90
2022-11-28T16:10:23.696Z,5.80
2022-11-28T16:12:52.295Z,5.80
2022-11-28T16:15:22.422Z,5.80
2022-11-28T16:17:49.980Z,5.80
2022-11-28T16:20:37.544Z,5.80
2022-11-28T16:23:30.822Z,5.80
2022-11-28T16:26:21.492Z,5.80
2022-11-28T16:29:34.524Z,5.80
2022-11-28T16:32:36.544Z,5.80
2022-11-28T16:35:05.517Z,5.80
2022-11-28T16:37:34.088Z,5.70
2022-11-28T16:40:15.711Z,5.70
2022-11-28T16:42:43.683Z,5.70
2022-11-28T16:45:18.922Z,5.70
2022-11-28T16:47:46.415Z,5.70
2022-11-28T16:50:26.086Z,5.70
2022-11-28T16:52:55.359Z,5.60
2022-11-28T16:55:34.912Z,5.60
2022-11-28T16:58:16.172Z,5.50
2022-11-28T17:00:52.415Z,5.60
2022-11-28T17:03:48.555Z,5.60
2022-11-28T17:06:19.610Z,5.60
2022-11-28T17:08:47.426Z,5.60
2022-11-28T17:11:18.835Z,5.60
2022-11-28T17:13:46.532Z,5.40
2022-11-28T17:16:23.116Z,5.50
2022-11-28T17:18:51.575Z,5.50
2022-11-28T17:21:28.421Z,5.50
2022-11-28T17:23:57.027Z,5.50
2022-11-28T17:26:25.297Z,5.50
2022-11-28T17:28:53.264Z,5.50
2022-11-28T17:31:22.812Z,5.50
2022-11-28T17:33:51.671Z,5.40
2022-11-28T17:36:19.885Z,5.50
2022-11-28T17:38:47.982Z,5.50
2022-11-28T17:41:15.586Z,5.40
2022-11-28T17:43:43.415Z,5.50
2022-11-28T17:46:11.850Z,5.50
2022-11-28T17:48:39.962Z,5.50
2022-11-28T17:51:11.453Z,5.50
2022-11-28T17:53:41.226Z,5.50
2022-11-28T17:56:14.533Z,5.50
2022-11-28T17:58:43.619Z,5.50
2022-11-28T18:01:13.141Z,5.50
2022-11-28T18:03:41.072Z,5.50
2022-11-28T18:06:18.333Z,5.50
2022-11-28T18:08:47.342Z,5.50
2022-11-28T18:11:16.453Z,5.50
2022-11-28T18:13:44.711Z,5.50
2022-11-28T18:16:14.028Z,5.50
2022-11-28T18:18:42.054Z,5.50
2022-11-28T18:21:11.190Z,5.50
2022-11-28T18:23:42.267Z,5.50
2022-11-28T18:26:13.548Z,5.40
2022-11-28T18:28:41.637Z,5.40
2022-11-28T18:31:25.543Z,5.40
2022-11-28T18:34:00.221Z,5.40
2022-11-28T18:36:32.349Z,5.40
2022-11-28T18:39:03.285Z,5.40
2022-11-28T18:41:31.785Z,5.40
2022-11-28T18:44:02.421Z,5.40
2022-11-28T18:46:35.091Z,5.40
2022-11-28T18:49:03.445Z,5.40
2022-11-28T18:51:34.616Z,5.40
2022-11-28T18:54:06.423Z,5.40
2022-11-28T18:56:36.380Z,5.40
2022-11-28T18:59:04.883Z,5.40
2022-11-28T19:01:34.723Z,5.30
2022-11-28T19:04:10.073Z,5.30
2022-11-28T19:06:39.980Z,5.40
2022-11-28T19:09:11.485Z,5.40
2022-11-28T19:11:40.814Z,5.40
2022-11-28T19:14:15.565Z,5.40
2022-11-28T19:16:45.581Z,5.40
2022-11-28T19:19:14.332Z,5.40
2022-11-28T19:21:44.005Z,5.40
2022-11-28T19:24:23.525Z,5.40
2022-11-28T19:26:51.199Z,5.40
2022-11-28T19:29:18.460Z,5.40
2022-11-28T19:31:45.753Z,5.40
2022-11-28T19:34:21.030Z,5.40
2022-11-28T19:36:53.032Z,5.40
2022-11-28T19:39:25.673Z,5.40
2022-11-28T19:41:59.084Z,5.30
2022-11-28T19:44:30.642Z,5.30
2022-11-28T19:46:58.896Z,5.30
2022-11-28T19:49:26.749Z,5.30
2022-11-28T19:51:55.246Z,5.30
2022-11-28T19:54:23.239Z,5.30
2022-11-28T19:56:51.578Z,5.20
2022-11-28T19:59:20.111Z,5.20
2022-11-28T20:01:50.087Z,5.20
2022-11-28T20:04:18.210Z,5.20
2022-11-28T20:06:45.872Z,5.20
2022-11-28T20:09:15.101Z,5.20
2022-11-28T20:11:44.275Z,5.30
2022-11-28T20:14:18.828Z,5.30
2022-11-28T20:16:47.035Z,5.30
2022-11-28T20:19:15.698Z,5.20
2022-11-28T20:21:43.929Z,5.30
2022-11-28T20:24:11.813Z,5.30
2022-11-28T20:26:42.557Z,5.20
2022-11-28T20:29:14.256Z,5.20
2022-11-28T20:31:47.290Z,5.20
2022-11-28T20:34:16.327Z,5.20
2022-11-28T20:36:45.613Z,5.20
2022-11-28T20:39:15.171Z,5.20
2022-11-28T20:41:44.068Z,5.20
2022-11-28T20:44:12.982Z,5.10
2022-11-28T20:46:40.552Z,5.10
2022-11-28T20:49:08.248Z,5.10
2022-11-28T20:51:36.957Z,5.10
2022-11-28T20:54:06.817Z,5.00
2022-11-28T20:57:12.977Z,5.10
2022-11-28T20:59:27.846Z,5.10
2022-11-28T21:01:55.514Z,5.10
2022-11-28T21:04:24.533Z,5.00
2022-11-28T21:06:52.207Z,5.00
2022-11-28T21:09:20.693Z,5.00
2022-11-28T21:11:58.722Z,5.00
2022-11-28T21:14:28.474Z,5.00
2022-11-28T21:16:57.057Z,5.00
2022-11-28T21:19:24.449Z,4.90
2022-11-28T21:21:51.854Z,4.90
2022-11-28T21:24:19.408Z,4.90
2022-11-28T21:26:51.369Z,4.80
2022-11-28T21:29:21.680Z,4.90
2022-11-28T21:31:49.468Z,4.80
2022-11-28T21:34:17.843Z,4.80
2022-11-28T21:36:45.521Z,4.80
2022-11-28T21:39:15.305Z,4.80
2022-11-28T21:41:42.731Z,4.90
2022-11-28T21:44:09.905Z,4.80
2022-11-28T21:46:37.128Z,4.90
2022-11-28T21:49:04.273Z,4.90
2022-11-28T21:51:31.312Z,4.90
2022-11-28T21:53:58.786Z,4.90
2022-11-28T21:56:26.140Z,5.00
2022-11-28T21:58:53.240Z,4.90
2022-11-28T22:01:23.188Z,4.90
2022-11-28T22:03:50.407Z,4.90
2022-11-28T22:06:20.165Z,4.80
2022-11-28T22:08:48.908Z,4.80
2022-11-28T22:11:16.654Z,4.80
2022-11-28T22:13:46.673Z,4.80
2022-11-28T22:16:23.779Z,4.80
2022-11-28T22:18:52.830Z,4.80
2022-11-28T22:21:50.680Z,4.80
2022-11-28T22:24:08.239Z,4.80
2022-11-28T22:26:35.490Z,4.80
2022-11-28T22:29:04.295Z,4.80
2022-11-28T22:31:31.946Z,4.80
2022-11-28T22:33:59.038Z,4.80
2022-11-28T22:36:26.058Z,4.80
2022-11-28T22:38:57.954Z,4.80
2022-11-28T22:41:28.902Z,4.80
2022-11-28T22:43:57.768Z,4.80
2022-11-28T22:46:24.808Z,4.80
2022-11-28T22:48:52.177Z,4.80
2022-11-28T22:51:23.991Z,4.80
2022-11-28T22:53:55.597Z,4.80
2022-11-28T22:56:22.686Z,4.80
2022-11-28T22:58:49.720Z,4.80
2022-11-28T23:01:19.578Z,4.80
2022-11-28T23:03:47.772Z,4.80
2022-11-28T23:06:20.819Z,4.70
2022-11-28T23:08:48.691Z,4.70
2022-11-28T23:11:18.786Z,4.70
2022-11-28T23:13:49.781Z,4.70
2022-11-28T23:16:25.161Z,4.70
2022-11-28T23:18:54.585Z,4.70
2022-11-28T23:21:23.308Z,4.60
2022-11-28T23:23:50.392Z,4.60
2022-11-28T23:26:20.467Z,4.70
2022-11-28T23:28:47.541Z,4.70
2022-11-28T23:31:25.674Z,4.70
2022-11-28T23:33:53.050Z,4.70
2022-11-28T23:36:24.271Z,4.70
2022-11-28T23:38:53.996Z,4.70
2022-11-28T23:41:21.259Z,4.70
2022-11-28T23:43:48.358Z,4.70
2022-11-28T23:46:16.704Z,4.70
2022-11-28T23:48:46.419Z,4.60
2022-11-28T23:51:15.602Z,4.60
2022-11-28T23:53:43.444Z,4.60
2022-11-28T23:56:16.051Z,4.60
2022-11-28T23:58:43.403Z,4.50
